Time;durP1;ratioP1;P1;durP2;ratioP2;P2;SDS_P1;SDS_P2;PMS_P1;PMS_P2;Temp;Humidity;BMP_temperature;BMP_pressure;BME280_temperature;BME280_humidity;BME280_pressure;Samples;Min_cycle;Max_cycle;Signal;HPM_P1;HPM_P2
2023/01/13 00:01:27;;;;;;;13.02;1.52;;;7.80;99.90;;;;;;5008000;28;20050;-60
2023/01/13 00:03:56;;;;;;;10.68;2.33;;;7.60;99.90;;;;;;5002609;28;20037;-61
2023/01/13 00:06:24;;;;;;;8.85;2.03;;;7.80;99.90;;;;;;5001092;28;20054;-59
2023/01/13 00:08:53;;;;;;;15.43;2.05;;;7.80;99.90;;;;;;4991572;28;20038;-59
2023/01/13 00:11:21;;;;;;;8.55;1.33;;;7.70;99.90;;;;;;4992876;28;20072;-59
2023/01/13 00:13:49;;;;;;;7.25;1.75;;;7.60;99.90;;;;;;5001018;28;20049;-61
2023/01/13 00:16:17;;;;;;;9.88;2.00;;;7.70;99.90;;;;;;5012397;28;20061;-59
2023/01/13 00:18:46;;;;;;;12.52;2.30;;;7.60;99.90;;;;;;5000718;28;20053;-60
2023/01/13 00:21:19;;;;;;;11.38;1.33;;;7.60;99.90;;;;;;4991804;28;20061;-60
2023/01/13 00:23:47;;;;;;;12.40;1.25;;;7.60;99.90;;;;;;4981642;28;20038;-59
2023/01/13 00:26:18;;;;;;;15.15;2.08;;;7.60;99.90;;;;;;4990682;28;20061;-62
2023/01/13 00:28:46;;;;;;;8.90;1.42;;;7.50;99.90;;;;;;4997550;28;20054;-60
2023/01/13 00:31:16;;;;;;;8.95;1.27;;;7.50;99.90;;;;;;5011809;28;20057;-61
2023/01/13 00:33:45;;;;;;;15.77;1.95;;;7.40;99.90;;;;;;5010305;28;20053;-61
2023/01/13 00:36:14;;;;;;;12.82;1.60;;;7.30;99.90;;;;;;4990164;28;20643;-60
2023/01/13 00:38:43;;;;;;;3.92;1.63;;;7.30;99.90;;;;;;5001684;28;20042;-61
2023/01/13 00:41:13;;;;;;;13.90;2.35;;;7.30;99.90;;;;;;5011871;28;20038;-61
2023/01/13 00:43:40;;;;;;;;;;;7.30;99.90;;;;;;5011924;28;20057;-58
2023/01/13 00:46:09;;;;;;;9.57;2.25;;;7.20;99.90;;;;;;4997308;28;19926;-60
2023/01/13 00:48:38;;;;;;;13.18;2.28;;;7.20;99.90;;;;;;4991940;28;20053;-60
2023/01/13 00:51:08;;;;;;;16.52;2.70;;;7.20;99.90;;;;;;4991562;28;20065;-60
2023/01/13 00:53:38;;;;;;;10.73;1.15;;;7.20;99.90;;;;;;4991912;28;20501;-62
2023/01/13 00:56:13;;;;;;;8.88;2.03;;;7.20;99.90;;;;;;4991825;28;20046;-61
2023/01/13 00:58:42;;;;;;;13.52;2.10;;;7.20;99.90;;;;;;4979309;28;20049;-61
2023/01/13 01:01:12;;;;;;;13.40;2.15;;;7.20;99.90;;;;;;5010963;28;20069;-61
2023/01/13 01:03:40;;;;;;;10.18;2.85;;;7.20;99.90;;;;;;4990887;28;20046;-60
2023/01/13 01:06:13;;;;;;;7.25;1.38;;;7.20;99.90;;;;;;4986490;28;20065;-60
2023/01/13 01:08:42;;;;;;;8.93;1.88;;;7.20;99.90;;;;;;4991919;28;20050;-61
2023/01/13 01:11:15;;;;;;;10.20;3.10;;;7.20;99.90;;;;;;4991700;28;20046;-62
2023/01/13 01:13:44;;;;;;;9.98;1.55;;;7.20;99.90;;;;;;4998854;28;20042;-60
2023/01/13 01:16:14;;;;;;;9.93;2.03;;;7.20;99.90;;;;;;5022739;28;20038;-61
2023/01/13 01:18:44;;;;;;;11.25;1.63;;;7.20;99.90;;;;;;4991444;28;20053;-60
2023/01/13 01:21:13;;;;;;;11.07;1.58;;;7.20;99.90;;;;;;4991075;28;20233;-60
2023/01/13 01:23:41;;;;;;;13.30;2.58;;;7.20;99.90;;;;;;4998728;28;20054;-60
2023/01/13 01:26:23;;;;;;;7.25;1.92;;;7.20;99.90;;;;;;4991284;28;20391;-61
2023/01/13 01:28:51;;;;;;;12.93;1.85;;;7.20;99.90;;;;;;4989823;28;20049;-60
2023/01/13 01:31:25;;;;;;;6.40;1.70;;;7.20;99.90;;;;;;5010558;28;20418;-60
2023/01/13 01:33:53;;;;;;;8.43;1.85;;;7.20;99.90;;;;;;5003001;28;20045;-60
2023/01/13 01:36:25;;;;;;;11.65;1.70;;;7.20;99.90;;;;;;4990936;28;20042;-60
2023/01/13 01:38:54;;;;;;;7.55;1.52;;;7.20;99.90;;;;;;5022464;28;20042;-62
2023/01/13 01:41:24;;;;;;;15.70;2.28;;;7.10;99.90;;;;;;4991179;28;20057;-60
2023/01/13 01:44:19;;;;;;;13.95;1.35;;;7.20;99.90;;;;;;4990869;28;20054;-61
2023/01/13 01:46:47;;;;;;;11.35;2.55;;;7.20;99.90;;;;;;4989910;28;20050;-60
2023/01/13 01:49:35;;;;;;;20.42;2.50;;;7.20;99.90;;;;;;4988342;28;20050;-60
2023/01/13 01:52:14;;;;;;;15.30;1.92;;;7.20;99.90;;;;;;4990470;28;20057;-60
2023/01/13 01:54:48;;;;;;;8.93;1.58;;;7.20;99.90;;;;;;4989499;28;20046;-61
2023/01/13 01:57:26;;;;;;;13.50;2.25;;;7.10;99.90;;;;;;4989722;28;20054;-61
2023/01/13 01:59:54;;;;;;;9.52;1.65;;;7.10;99.90;;;;;;5003784;28;20406;-58
2023/01/13 02:02:22;;;;;;;12.98;1.38;;;7.10;99.90;;;;;;5010125;28;20496;-59
2023/01/13 02:04:52;;;;;;;13.00;2.53;;;7.10;99.90;;;;;;4995879;28;20050;-61
2023/01/13 02:07:29;;;;;;;11.55;1.70;;;7.10;99.90;;;;;;5002292;28;20043;-59
2023/01/13 02:10:00;;;;;;;30.33;2.67;;;7.10;99.90;;;;;;4972536;28;20495;-59
2023/01/13 02:12:28;;;;;;;7.95;1.48;;;7.10;99.90;;;;;;4990302;28;20046;-60
2023/01/13 02:15:04;;;;;;;8.52;2.03;;;7.10;99.90;;;;;;4990142;28;20065;-60
2023/01/13 02:17:47;;;;;;;8.77;1.33;;;7.00;99.90;;;;;;4990527;28;20173;-60
2023/01/13 02:20:50;;;;;;;18.63;3.75;;;7.00;99.90;;;;;;4990403;28;20073;-61
2023/01/13 02:27:01;;;;;;;13.35;1.77;;;7.00;99.90;;;;;;5009846;28;20049;-62
2023/01/13 02:33:06;;;;;;;11.25;1.20;;;7.00;99.90;;;;;;4988775;28;20055;-61
2023/01/13 02:36:01;;;;;;;5.32;1.30;;;7.00;99.90;;;;;;4972224;28;20510;-62
2023/01/13 02:38:50;;;;;;;10.38;1.40;;;7.00;99.90;;;;;;4990703;28;20046;-63
2023/01/13 02:44:23;;;;;;;5.88;1.08;;;7.00;99.90;;;;;;4991607;28;20046;-60
2023/01/13 02:47:07;;;;;;;6.90;1.85;;;7.00;99.90;;;;;;4990711;28;20042;-62
2023/01/13 02:49:52;;;;;;;12.30;1.63;;;7.00;99.90;;;;;;4991857;28;20529;-62
2023/01/13 02:53:01;;;;;;;9.95;2.15;;;7.00;99.90;;;;;;4991447;28;20046;-60
2023/01/13 02:55:39;;;;;;;9.20;1.60;;;7.00;99.90;;;;;;4983587;28;20491;-62
2023/01/13 02:58:11;;;;;;;9.73;1.00;;;7.00;99.90;;;;;;4991429;28;20046;-59
2023/01/13 03:00:40;;;;;;;18.33;1.58;;;6.90;99.90;;;;;;4991999;28;20042;-60
2023/01/13 03:03:08;;;;;;;8.73;1.58;;;7.00;99.90;;;;;;4995641;28;20406;-60
2023/01/13 03:05:36;;;;;;;14.00;2.55;;;6.90;99.90;;;;;;4995588;28;20046;-63
2023/01/13 03:08:42;;;;;;;9.70;1.92;;;6.90;99.90;;;;;;4995619;28;20045;-59
2023/01/13 03:11:12;;;;;;;8.95;1.83;;;7.00;99.90;;;;;;5010472;28;20042;-63
2023/01/13 03:13:48;;;;;;;8.55;0.93;;;7.00;99.90;;;;;;4993002;28;20042;-60
2023/01/13 03:16:29;;;;;;;10.45;1.67;;;6.90;99.90;;;;;;4994453;28;20057;-59
2023/01/13 03:19:25;;;;;;;12.02;2.03;;;6.90;99.90;;;;;;4995486;28;20375;-59
2023/01/13 03:22:14;;;;;;;9.38;1.40;;;6.90;99.90;;;;;;4995562;28;20422;-60
2023/01/13 03:24:49;;;;;;;4.90;1.33;;;6.90;99.90;;;;;;4995299;28;20046;-60
2023/01/13 03:27:33;;;;;;;11.23;1.63;;;6.90;99.90;;;;;;4994045;28;20057;-59
2023/01/13 03:30:11;;;;;;;11.63;1.60;;;6.90;99.90;;;;;;5009970;28;20054;-61
2023/01/13 03:32:45;;;;;;;14.20;1.80;;;6.90;99.90;;;;;;5014920;28;20486;-62
2023/01/13 03:35:24;;;;;;;13.70;2.05;;;6.90;99.90;;;;;;4996807;28;20046;-59
2023/01/13 03:38:24;;;;;;;13.38;1.75;;;6.90;99.90;;;;;;4995157;28;20386;-59
2023/01/13 03:40:56;;;;;;;9.13;1.23;;;6.90;99.90;;;;;;4994136;28;20057;-59
2023/01/13 03:46:32;;;;;;;12.88;2.20;;;6.90;99.90;;;;;;4994932;28;20046;-59
2023/01/13 03:49:03;;;;;;;13.05;1.27;;;6.90;99.90;;;;;;4994882;28;20118;-59
2023/01/13 03:51:34;;;;;;;11.77;1.50;;;6.90;99.90;;;;;;4994878;28;20046;-60
2023/01/13 03:54:07;;;;;;;9.30;1.60;;;6.80;99.90;;;;;;4993039;28;20050;-60
2023/01/13 03:56:42;;;;;;;16.60;1.95;;;6.80;99.90;;;;;;4993094;28;20050;-60
2023/01/13 03:59:16;;;;;;;13.88;1.52;;;6.70;99.90;;;;;;5003225;28;20511;-60
2023/01/13 04:01:53;;;;;;;11.88;1.48;;;6.70;99.90;;;;;;5014266;28;20050;-60
2023/01/13 04:04:35;;;;;;;4.28;0.90;;;6.60;99.90;;;;;;5002662;28;20054;-60
2023/01/13 04:07:15;;;;;;;10.98;1.40;;;6.50;99.90;;;;;;4994615;28;20394;-60
2023/01/13 04:09:51;;;;;;;8.63;1.20;;;6.50;99.90;;;;;;4994232;28;20398;-60
2023/01/13 04:15:22;;;;;;;9.48;1.42;;;6.50;99.90;;;;;;4994200;28;20058;-60
2023/01/13 04:17:50;;;;;;;7.05;1.20;;;6.40;99.90;;;;;;4994427;28;20039;-60
2023/01/13 04:20:18;;;;;;;8.95;1.23;;;6.40;99.90;;;;;;4994257;28;20414;-60
2023/01/13 04:22:46;;;;;;;14.98;1.95;;;6.50;99.90;;;;;;4993552;28;20050;-60
2023/01/13 04:25:14;;;;;;;14.90;1.35;;;6.40;99.90;;;;;;4992926;28;20046;-58
2023/01/13 04:27:41;;;;;;;12.73;2.30;;;6.50;99.90;;;;;;4994029;28;20046;-58
2023/01/13 04:30:09;;;;;;;9.00;1.60;;;6.50;99.90;;;;;;5010513;28;20041;-59
2023/01/13 04:32:37;;;;;;;10.60;1.40;;;6.50;99.90;;;;;;5013559;28;20042;-59
2023/01/13 04:35:05;;;;;;;6.72;0.98;;;6.50;99.90;;;;;;4997209;28;20042;-58
2023/01/13 04:37:33;;;;;;;13.05;1.73;;;6.50;99.90;;;;;;4994087;28;20054;-59
2023/01/13 04:40:01;;;;;;;14.05;1.50;;;6.50;99.90;;;;;;4993912;28;20046;-60
2023/01/13 04:42:28;;;;;;;12.32;1.20;;;6.50;99.90;;;;;;4992437;28;20053;-62
2023/01/13 04:44:56;;;;;;;11.20;1.42;;;6.50;99.90;;;;;;4991943;28;20061;-63
2023/01/13 04:47:23;;;;;;;15.98;1.83;;;6.50;99.90;;;;;;4992142;28;20073;-60
2023/01/13 04:49:51;;;;;;;12.30;2.45;;;6.50;99.90;;;;;;4993020;28;20053;-60
2023/01/13 04:52:19;;;;;;;9.43;1.30;;;6.50;99.90;;;;;;4993918;28;20050;-59
2023/01/13 04:54:46;;;;;;;5.50;1.08;;;6.50;99.90;;;;;;4994158;28;20035;-59
2023/01/13 04:57:14;;;;;;;7.95;0.90;;;6.50;99.90;;;;;;4993761;28;20509;-60
2023/01/13 04:59:42;;;;;;;8.57;1.00;;;6.40;99.90;;;;;;5003455;28;20039;-59
2023/01/13 05:02:13;;;;;;;7.20;0.50;;;6.50;99.90;;;;;;4993740;28;20051;-61
2023/01/13 05:04:41;;;;;;;2.78;0.60;;;6.40;99.90;;;;;;4993564;28;20038;-60
2023/01/13 05:07:09;;;;;;;3.58;0.57;;;6.50;99.90;;;;;;4993432;28;20069;-63
2023/01/13 05:09:36;;;;;;;3.38;0.50;;;6.50;99.90;;;;;;4993454;28;20054;-62
2023/01/13 05:17:37;;;;;;;4.22;1.00;;;6.70;99.90;;;;;;4991128;28;20065;-62
2023/01/13 05:20:05;;;;;;;3.28;0.30;;;6.70;99.90;;;;;;4993256;28;20050;-60
2023/01/13 05:25:26;;;;;;;1.35;0.47;;;6.80;99.90;;;;;;4992052;28;20049;-62
2023/01/13 05:27:59;;;;;;;1.98;0.32;;;6.90;99.90;;;;;;4991541;28;20069;-62
2023/01/13 05:30:32;;;;;;;3.55;0.50;;;6.90;99.90;;;;;;5011654;28;20049;-62
2023/01/13 05:32:59;;;;;;;3.40;0.30;;;7.00;99.90;;;;;;5005714;28;20049;-60
2023/01/13 05:35:30;;;;;;;2.00;0.30;;;7.00;99.90;;;;;;4991732;28;20062;-60
2023/01/13 05:37:58;;;;;;;3.03;0.30;;;;;;;;;;4992945;28;20057;-59
2023/01/13 05:43:20;;;;;;;3.50;0.63;;;7.10;99.90;;;;;;4992860;28;20046;-62
2023/01/13 05:46:08;;;;;;;3.13;0.57;;;7.20;99.90;;;;;;4990153;28;20053;-60
2023/01/13 05:48:38;;;;;;;2.38;0.35;;;7.20;99.90;;;;;;4986108;28;20410;-61
2023/01/13 05:51:08;;;;;;;2.42;0.30;;;7.20;99.90;;;;;;4989648;28;20055;-60
2023/01/13 05:53:36;;;;;;;2.15;0.30;;;7.20;99.90;;;;;;4989253;28;20061;-60
2023/01/13 05:56:06;;;;;;;1.17;0.20;;;7.20;99.90;;;;;;4989661;28;20493;-60
2023/01/13 05:58:34;;;;;;;1.95;0.30;;;7.20;99.90;;;;;;4992827;28;20054;-60
2023/01/13 06:01:04;;;;;;;3.00;0.20;;;7.20;99.90;;;;;;5008712;28;20496;-59
2023/01/13 06:03:32;;;;;;;4.80;0.47;;;7.20;99.90;;;;;;4988960;28;20046;-60
2023/01/13 06:06:02;;;;;;;4.88;0.45;;;7.20;99.90;;;;;;4987255;28;20062;-62
2023/01/13 06:08:31;;;;;;;3.22;0.70;;;7.30;99.90;;;;;;4985702;28;20061;-62
2023/01/13 06:10:59;;;;;;;4.13;0.60;;;;;;;;;;4986066;28;20054;-60
2023/01/13 06:13:26;;;;;;;2.72;0.80;;;7.30;99.90;;;;;;4999643;28;20049;-62
2023/01/13 06:15:56;;;;;;;6.32;0.55;;;7.30;99.90;;;;;;4997951;28;20047;-62
2023/01/13 06:18:24;;;;;;;1.02;0.20;;;7.20;99.90;;;;;;4984987;28;20066;-61
2023/01/13 06:20:52;;;;;;;1.45;0.17;;;7.30;99.90;;;;;;4987253;28;20050;-60
2023/01/13 06:23:19;;;;;;;2.47;0.30;;;7.30;99.90;;;;;;4987230;28;20521;-58
2023/01/13 06:25:58;;;;;;;1.95;0.35;;;7.30;99.90;;;;;;4987223;28;20050;-58
2023/01/13 06:28:26;;;;;;;3.13;0.93;;;7.30;99.90;;;;;;4989946;28;20057;-59
2023/01/13 06:30:58;;;;;;;1.15;0.57;;;7.30;99.90;;;;;;5006703;28;20298;-59
2023/01/13 06:33:38;;;;;;;2.30;0.20;;;7.30;99.90;;;;;;4996335;28;20086;-60
2023/01/13 06:36:13;;;;;;;2.38;0.30;;;7.30;99.90;;;;;;4990099;28;20333;-60
2023/01/13 06:38:44;;;;;;;2.00;0.25;;;7.30;99.90;;;;;;5002283;28;20521;-59
2023/01/13 06:41:12;;;;;;;3.30;0.35;;;;;;;;;;4989228;28;20051;-60
2023/01/13 06:43:40;;;;;;;2.83;0.35;;;7.30;99.90;;;;;;4989413;28;20030;-59
2023/01/13 06:46:07;;;;;;;3.95;0.77;;;7.30;99.90;;;;;;4990043;28;20483;-60
2023/01/13 06:48:35;;;;;;;4.10;0.40;;;7.40;99.90;;;;;;4991766;28;20046;-59
2023/01/13 06:51:03;;;;;;;0.93;0.30;;;7.40;99.90;;;;;;4989837;28;20516;-59
2023/01/13 06:53:31;;;;;;;2.30;0.32;;;7.40;99.90;;;;;;4990030;28;20682;-58
2023/01/13 06:55:58;;;;;;;2.60;0.20;;;7.40;99.90;;;;;;4986397;28;20045;-59
2023/01/13 06:58:26;;;;;;;1.58;0.30;;;7.40;99.90;;;;;;4992477;28;20054;-59
2023/01/13 07:01:00;;;;;;;0.30;0.20;;;7.40;99.90;;;;;;4988396;28;20053;-60
2023/01/13 07:03:28;;;;;;;1.30;0.30;;;;;;;;;;5000562;28;20528;-58
2023/01/13 07:05:56;;;;;;;3.13;0.30;;;7.50;99.90;;;;;;4987399;28;20046;-60
2023/01/13 07:08:23;;;;;;;3.40;0.50;;;7.40;99.90;;;;;;5000406;28;20056;-59
2023/01/13 07:10:51;;;;;;;1.40;0.28;;;7.50;99.90;;;;;;5007655;28;20050;-60
2023/01/13 07:16:07;;;;;;;2.28;0.40;;;7.50;99.90;;;;;;4985961;28;20042;-59
2023/01/13 07:18:36;;;;;;;1.37;0.30;;;7.40;99.90;;;;;;4986079;28;20051;-59
2023/01/13 07:21:08;;;;;;;2.60;0.30;;;7.40;99.90;;;;;;4987189;28;20035;-58
2023/01/13 07:23:38;;;;;;;6.93;0.70;;;7.50;99.90;;;;;;4984514;28;20054;-59
2023/01/13 07:26:08;;;;;;;6.25;0.57;;;7.50;99.90;;;;;;4986621;28;20058;-59
2023/01/13 07:28:37;;;;;;;5.40;0.40;;;7.50;99.90;;;;;;4990680;28;20049;-59
2023/01/13 07:31:16;;;;;;;3.50;0.70;;;7.50;99.90;;;;;;5006694;28;20508;-60
2023/01/13 07:33:45;;;;;;;3.55;0.68;;;;;;;;;;4988814;28;20046;-60
2023/01/13 07:36:13;;;;;;;2.20;0.28;;;7.50;99.90;;;;;;4989435;28;20039;-60
2023/01/13 07:38:43;;;;;;;1.17;0.20;;;7.50;99.90;;;;;;4989756;28;20053;-59
2023/01/13 07:44:01;;;;;;;5.32;2.28;;;7.50;99.90;;;;;;5006682;28;20050;-60
2023/01/13 07:46:29;;;;;;;0.47;0.43;;;7.50;99.90;;;;;;4993911;28;20491;-61
2023/01/13 07:48:57;;;;;;;3.47;0.70;;;7.60;99.90;;;;;;4985983;28;20410;-60
2023/01/13 07:51:25;;;;;;;3.85;0.45;;;7.50;99.90;;;;;;4991677;28;20046;-61
2023/01/13 07:53:53;;;;;;;4.13;0.40;;;7.50;99.90;;;;;;5009167;28;20049;-60
2023/01/13 07:56:21;;;;;;;4.75;0.38;;;7.50;99.90;;;;;;5009388;28;20367;-60
2023/01/13 07:58:52;;;;;;;4.38;0.40;;;7.50;99.90;;;;;;4998835;28;20045;-61
2023/01/13 08:01:20;;;;;;;4.15;0.55;;;7.50;99.90;;;;;;5011110;28;20046;-60
2023/01/13 08:03:48;;;;;;;2.08;0.15;;;7.40;99.90;;;;;;4987557;28;20057;-60
2023/01/13 08:06:15;;;;;;;3.25;0.43;;;7.40;99.90;;;;;;4970945;28;20050;-62
2023/01/13 08:08:43;;;;;;;2.08;0.50;;;7.40;99.90;;;;;;4992564;28;20047;-60
2023/01/13 08:11:11;;;;;;;2.28;0.35;;;7.40;99.90;;;;;;4992881;28;20042;-64
2023/01/13 08:13:38;;;;;;;1.60;0.35;;;7.40;99.90;;;;;;4992911;28;20058;-61
2023/01/13 08:16:09;;;;;;;1.98;0.30;;;7.40;99.90;;;;;;4992566;28;20042;-60
2023/01/13 08:18:37;;;;;;;5.63;0.60;;;7.40;99.90;;;;;;5001302;28;20050;-62
2023/01/13 08:21:08;;;;;;;3.03;0.35;;;7.30;99.90;;;;;;4992977;28;20046;-60
2023/01/13 08:23:35;;;;;;;2.78;0.82;;;7.40;99.90;;;;;;5008259;28;20049;-61
2023/01/13 08:26:06;;;;;;;1.92;0.50;;;7.40;99.90;;;;;;5012212;28;20049;-60
2023/01/13 08:28:34;;;;;;;4.10;1.15;;;7.30;99.90;;;;;;5005745;28;20218;-59
2023/01/13 08:31:04;;;;;;;5.50;0.75;;;7.30;99.90;;;;;;4992397;28;20057;-59
2023/01/13 08:33:32;;;;;;;6.53;0.50;;;7.40;99.90;;;;;;4991760;28;20054;-59
2023/01/13 08:36:09;;;;;;;5.13;0.47;;;7.40;99.90;;;;;;4990284;28;20435;-59
2023/01/13 08:38:37;;;;;;;6.28;0.82;;;7.40;99.90;;;;;;5004286;28;20049;-60
2023/01/13 08:41:11;;;;;;;4.97;0.80;;;7.40;99.90;;;;;;5004039;28;20039;-60
2023/01/13 08:43:38;;;;;;;6.80;0.85;;;7.40;99.90;;;;;;4989006;28;20478;-61
2023/01/13 08:46:06;;;;;;;7.10;0.77;;;7.40;99.90;;;;;;4989000;28;20054;-63
2023/01/13 08:48:34;;;;;;;2.72;0.55;;;7.40;99.90;;;;;;5021087;28;20038;-62
2023/01/13 08:51:08;;;;;;;2.30;0.47;;;7.40;99.90;;;;;;4988787;28;20042;-62
2023/01/13 08:53:35;;;;;;;4.47;0.90;;;7.40;99.90;;;;;;4992820;28;20046;-62
2023/01/13 08:56:10;;;;;;;3.40;0.50;;;7.40;99.90;;;;;;4991105;28;20062;-61
2023/01/13 08:58:39;;;;;;;3.42;0.73;;;7.40;99.90;;;;;;4988994;28;20677;-60
2023/01/13 09:01:08;;;;;;;3.10;0.95;;;7.40;99.90;;;;;;4991725;28;20084;-60
2023/01/13 09:03:37;;;;;;;6.82;0.98;;;7.50;99.90;;;;;;4991381;28;20062;-59
2023/01/13 09:06:05;;;;;;;10.18;0.90;;;7.40;99.90;;;;;;4991879;28;20485;-59
2023/01/13 09:08:33;;;;;;;9.27;1.48;;;;;;;;;;4989737;28;20518;-59
2023/01/13 09:13:10;;;;;;;8.60;1.40;;;7.50;99.90;;;;;;4988715;28;20054;-59
2023/01/13 09:13:49;;;;;;;4.75;2.15;;;7.50;99.90;;;;;;4987143;28;20514;-59
2023/01/13 09:16:17;;;;;;;4.53;0.95;;;7.40;99.90;;;;;;4990714;28;20042;-60
2023/01/13 09:18:44;;;;;;;5.03;0.73;;;7.40;99.90;;;;;;4990568;28;20046;-59
2023/01/13 09:21:13;;;;;;;1.92;0.40;;;7.40;99.90;;;;;;4991191;28;20046;-60
2023/01/13 09:23:40;;;;;;;5.18;0.77;;;7.40;99.90;;;;;;4994545;28;20050;-59
2023/01/13 09:26:08;;;;;;;9.23;0.70;;;7.50;99.90;;;;;;4991537;28;20053;-60
2023/01/13 09:28:36;;;;;;;3.72;0.98;;;7.40;99.90;;;;;;4991228;28;20498;-59
2023/01/13 09:31:03;;;;;;;4.35;0.73;;;7.50;99.90;;;;;;4987980;28;20046;-60
2023/01/13 09:36:18;;;;;;;5.55;0.40;;;7.60;99.90;;;;;;4977724;28;20136;-62
2023/01/13 09:38:48;;;;;;;4.57;0.95;;;7.60;99.90;;;;;;4989879;28;20046;-60
2023/01/13 09:44:23;;;;;;;3.85;0.60;;;7.70;99.90;;;;;;5009077;28;20121;-61
2023/01/13 09:46:59;;;;;;;4.38;0.68;;;7.70;99.90;;;;;;5010857;28;20061;-58
2023/01/13 09:49:34;;;;;;;5.25;0.73;;;7.70;99.90;;;;;;4998972;28;20042;-59
2023/01/13 09:52:13;;;;;;;9.45;1.15;;;7.70;99.90;;;;;;4993019;28;20049;-62
2023/01/13 09:55:04;;;;;;;4.95;1.05;;;7.60;99.90;;;;;;5005832;28;20491;-60
2023/01/13 09:57:36;;;;;;;3.42;0.60;;;7.60;99.90;;;;;;4991013;28;20398;-60
2023/01/13 10:00:11;;;;;;;7.00;0.60;;;7.60;99.90;;;;;;4988586;28;20050;-59
2023/01/13 10:03:00;;;;;;;4.90;1.25;;;7.60;99.90;;;;;;4989842;28;20038;-58
2023/01/13 10:05:41;;;;;;;7.55;1.52;;;7.60;99.90;;;;;;4987183;28;20049;-59
2023/01/13 10:08:25;;;;;;;3.97;0.65;;;7.70;99.90;;;;;;4985990;28;20363;-59
2023/01/13 10:10:56;;;;;;;7.38;0.98;;;7.70;99.90;;;;;;4989807;28;20047;-61
2023/01/13 10:13:25;;;;;;;9.57;1.15;;;7.80;99.90;;;;;;4990535;28;20050;-61
2023/01/13 10:16:14;;;;;;;6.43;1.23;;;7.90;99.90;;;;;;4989611;28;20474;-63
2023/01/13 10:18:54;;;;;;;4.43;0.85;;;8.10;99.90;;;;;;4988276;28;20050;-63
2023/01/13 10:21:27;;;;;;;7.40;1.17;;;8.20;99.90;;;;;;4987822;28;20054;-62
2023/01/13 10:24:10;;;;;;;3.42;0.70;;;8.20;99.90;;;;;;5000710;28;20287;-60
2023/01/13 10:26:59;;;;;;;5.18;0.85;;;8.30;99.90;;;;;;4988670;28;20042;-59
2023/01/13 10:29:29;;;;;;;6.40;0.73;;;8.30;99.90;;;;;;4987282;28;20437;-59
2023/01/13 10:31:58;;;;;;;6.85;0.77;;;8.40;99.90;;;;;;5021156;28;20039;-63
2023/01/13 10:34:27;;;;;;;8.07;1.30;;;8.40;99.90;;;;;;4986966;28;20046;-60
2023/01/13 10:37:02;;;;;;;4.53;0.75;;;8.50;99.90;;;;;;4981308;28;20050;-63
2023/01/13 10:39:42;;;;;;;10.65;1.40;;;8.60;99.90;;;;;;5017723;28;20050;-64
2023/01/13 10:42:21;;;;;;;9.32;1.52;;;8.60;99.90;;;;;;4986029;28;20045;-64
2023/01/13 10:44:55;;;;;;;3.97;0.75;;;8.70;99.90;;;;;;4990435;28;20054;-60
2023/01/13 10:47:35;;;;;;;3.97;0.63;;;8.70;99.90;;;;;;4988529;28;20513;-62
2023/01/13 10:50:27;;;;;;;4.80;0.85;;;8.70;99.90;;;;;;4970133;28;20047;-59
2023/01/13 10:53:17;;;;;;;3.58;0.70;;;8.70;99.90;;;;;;4992569;28;20055;-60
2023/01/13 10:55:59;;;;;;;11.07;1.35;;;8.70;99.90;;;;;;4990288;28;20054;-59
2023/01/13 10:58:27;;;;;;;4.70;0.50;;;8.70;99.90;;;;;;4990114;28;20053;-60
2023/01/13 11:01:06;;;;;;;5.07;0.75;;;8.70;99.90;;;;;;4988841;28;20505;-59
2023/01/13 11:03:40;;;;;;;3.08;0.50;;;8.80;99.90;;;;;;4989727;28;20054;-58
2023/01/13 11:06:17;;;;;;;3.15;0.43;;;8.80;99.90;;;;;;4989900;28;20050;-63
2023/01/13 11:08:48;;;;;;;4.18;1.30;;;8.90;99.90;;;;;;4989645;28;20039;-62
2023/01/13 11:11:39;;;;;;;3.75;0.65;;;9.00;99.90;;;;;;4990111;28;20046;-59
2023/01/13 11:14:40;;;;;;;7.72;0.90;;;9.10;99.90;;;;;;4989760;28;20501;-60
2023/01/13 11:17:22;;;;;;;6.28;1.65;;;9.20;99.90;;;;;;4970460;28;20051;-60
2023/01/13 11:19:58;;;;;;;4.15;0.50;;;9.20;99.90;;;;;;4988317;28;20057;-61
2023/01/13 11:22:37;;;;;;;7.13;0.63;;;9.30;99.90;;;;;;4992917;28;20053;-59
2023/01/13 11:25:12;;;;;;;18.40;1.35;;;9.30;99.90;;;;;;4993912;28;20046;-60
2023/01/13 11:27:54;;;;;;;5.35;0.57;;;9.40;99.90;;;;;;5007908;28;20050;-60
2023/01/13 11:30:37;;;;;;;4.80;0.60;;;9.40;99.90;;;;;;4990296;28;20073;-60
2023/01/13 11:33:13;;;;;;;3.33;0.70;;;9.50;99.90;;;;;;5001986;28;20052;-59
2023/01/13 11:35:46;;;;;;;2.10;0.50;;;9.60;99.90;;;;;;4988736;28;20055;-62
2023/01/13 11:38:46;;;;;;;7.45;1.05;;;9.60;99.90;;;;;;5002009;28;20389;-59
2023/01/13 11:41:27;;;;;;;4.60;0.60;;;9.80;99.90;;;;;;4993351;28;20046;-59
2023/01/13 11:44:15;;;;;;;1.23;0.43;;;10.00;99.90;;;;;;4992474;28;20057;-60
2023/01/13 11:46:48;;;;;;;3.85;0.73;;;10.20;99.90;;;;;;5018482;28;20058;-60
2023/01/13 11:49:27;;;;;;;11.40;1.10;;;10.10;99.90;;;;;;4992464;28;20057;-61
2023/01/13 11:51:59;;;;;;;6.70;0.98;;;10.00;99.90;;;;;;4995646;28;20045;-59
2023/01/13 11:54:44;;;;;;;2.45;0.93;;;9.90;99.90;;;;;;4993033;28;20053;-59
2023/01/13 11:57:24;;;;;;;2.53;0.30;;;9.70;99.90;;;;;;4991470;28;20513;-58
2023/01/13 11:59:57;;;;;;;4.85;0.68;;;9.70;99.90;;;;;;4978528;28;20529;-57
2023/01/13 12:02:56;;;;;;;3.00;0.68;;;9.60;99.90;;;;;;4990442;28;20070;-58
2023/01/13 12:06:06;;;;;;;8.60;0.70;;;9.50;99.90;;;;;;4992303;28;20046;-59
2023/01/13 12:08:37;;;;;;;5.38;0.68;;;9.40;99.90;;;;;;4991320;28;20072;-59
2023/01/13 12:12:18;;;;;;;5.07;0.68;;;9.20;99.90;;;;;;4990807;28;20058;-58
2023/01/13 12:14:30;;;;;;;3.47;0.68;;;9.40;99.90;;;;;;4992443;28;20065;-60
2023/01/13 12:17:00;;;;;;;0.93;0.35;;;9.40;99.90;;;;;;4990058;28;20494;-59
2023/01/13 12:19:31;;;;;;;2.08;0.30;;;9.90;99.90;;;;;;4991912;28;20046;-58
2023/01/13 12:22:33;;;;;;;1.17;0.57;;;10.10;99.90;;;;;;4983744;28;20045;-57
2023/01/13 12:25:35;;;;;;;7.15;0.95;;;10.40;99.90;;;;;;4991798;28;20045;-57
2023/01/13 12:28:14;;;;;;;4.20;0.32;;;10.60;99.90;;;;;;4992524;28;20061;-59
2023/01/13 12:30:49;;;;;;;5.15;0.60;;;10.80;99.90;;;;;;4990570;28;20046;-60
2023/01/13 12:33:43;;;;;;;4.82;0.82;;;10.80;99.90;;;;;;5001775;28;20073;-59
2023/01/13 12:36:17;;;;;;;3.75;0.75;;;10.40;99.90;;;;;;4992145;28;20050;-60
2023/01/13 12:38:47;;;;;;;17.00;1.23;;;10.10;99.90;;;;;;4992329;28;20502;-60
2023/01/13 12:44:15;;;;;;;2.95;0.60;;;9.90;99.90;;;;;;4989891;28;20058;-59
2023/01/13 12:44:30;;;;;;;5.28;1.63;;;9.70;99.90;;;;;;4991238;28;20379;-58
2023/01/13 12:46:59;;;;;;;2.70;0.60;;;9.60;99.90;;;;;;4992407;28;20065;-59
2023/01/13 12:49:30;;;;;;;4.70;0.85;;;9.70;99.90;;;;;;4992026;28;20050;-59
2023/01/13 12:51:58;;;;;;;3.63;0.88;;;9.70;99.90;;;;;;4992499;28;20060;-60
2023/01/13 12:54:29;;;;;;;2.83;1.05;;;9.60;99.90;;;;;;4990860;28;20043;-61
2023/01/13 12:56:58;;;;;;;5.75;1.45;;;9.70;99.90;;;;;;4990639;28;20062;-60
2023/01/13 12:59:25;;;;;;;4.57;1.88;;;9.60;99.90;;;;;;4990766;28;20057;-59
2023/01/13 13:02:11;;;;;;;5.03;1.10;;;9.60;99.90;;;;;;4992048;28;20042;-59
2023/01/13 13:04:51;;;;;;;5.82;0.80;;;9.60;99.90;;;;;;4978625;28;20050;-60
2023/01/13 13:07:22;;;;;;;;;;;9.60;99.90;;;;;;4992190;28;20061;-59
2023/01/13 13:10:14;;;;;;;11.40;1.35;;;10.60;99.90;;;;;;4989481;28;19922;-60
2023/01/13 13:15:30;;;;;;;9.63;1.83;;;11.30;99.90;;;;;;4991507;28;20093;-61
2023/01/13 13:17:57;;;;;;;;;;;11.30;99.90;;;;;;4991014;28;20046;-60
2023/01/13 13:20:53;;;;;;;4.25;0.60;;;11.10;99.90;;;;;;4988571;28;19922;-59
2023/01/13 13:23:35;;;;;;;5.63;1.10;;;10.60;99.90;;;;;;4990722;28;20053;-60
2023/01/13 13:26:18;;;;;;;3.97;0.93;;;10.20;99.90;;;;;;4972149;28;20039;-57
2023/01/13 13:29:05;;;;;;;4.93;1.02;;;9.80;99.90;;;;;;5015250;28;20047;-60
2023/01/13 13:31:42;;;;;;;10.60;1.65;;;9.50;99.90;;;;;;4990912;28;20049;-59
2023/01/13 13:34:18;;;;;;;9.98;1.15;;;9.30;99.90;;;;;;5002388;28;20058;-58
2023/01/13 13:37:11;;;;;;;7.03;1.95;;;9.30;99.90;;;;;;4979433;28;20053;-59
2023/01/13 13:48:28;;;;;;;4.63;0.88;;;10.90;99.90;;;;;;4977533;28;20050;-59
2023/01/13 13:51:02;;;;;;;11.73;1.67;;;11.70;99.90;;;;;;4990559;28;20043;-59
2023/01/13 13:53:34;;;;;;;8.10;1.25;;;12.20;99.90;;;;;;4991156;28;20042;-60
2023/01/13 13:56:11;;;;;;;6.72;1.27;;;12.60;99.90;;;;;;4989010;28;20537;-59
2023/01/13 13:58:39;;;;;;;11.45;1.42;;;12.40;99.90;;;;;;4990828;28;20046;-60
2023/01/13 14:01:23;;;;;;;11.63;1.88;;;12.10;99.90;;;;;;4989214;28;20054;-60
2023/01/13 14:04:05;;;;;;;17.55;1.92;;;12.10;99.90;;;;;;5004687;28;20054;-60
2023/01/13 14:06:33;;;;;;;6.38;0.90;;;11.80;99.90;;;;;;4989530;28;20530;-60
2023/01/13 14:09:02;;;;;;;7.63;1.60;;;11.40;99.90;;;;;;4989997;28;20418;-59
2023/01/13 14:11:32;;;;;;;7.22;0.95;;;10.80;99.90;;;;;;4988298;28;20049;-59
2023/01/13 14:14:06;;;;;;;8.43;1.40;;;10.40;99.90;;;;;;4990148;28;20057;-60
2023/01/13 14:16:33;;;;;;;4.55;1.02;;;10.00;99.90;;;;;;4989386;28;20054;-58
2023/01/13 14:19:02;;;;;;;11.30;1.20;;;10.00;99.90;;;;;;4988941;28;20049;-60
2023/01/13 14:21:31;;;;;;;13.57;1.67;;;9.90;99.90;;;;;;4989996;28;20311;-59